sensor_id;sensor_type;location;lat;lon;timestamp;pressure;altitude;pressure_sealevel;temperature;humidity
76998;BME280;65930;48.874;10.734;2023-03-01T00:01:15;96713.34;;;-1.48;72.06
76998;BME280;65930;48.874;10.734;2023-03-01T00:03:45;96703.47;;;-1.44;72.09
76998;BME280;65930;48.874;10.734;2023-03-01T00:06:14;96703.47;;;-1.44;71.98
76998;BME280;65930;48.874;10.734;2023-03-01T00:08:42;96705.00;;;-1.52;72.32
76998;BME280;65930;48.874;10.734;2023-03-01T00:11:14;96707.63;;;-1.47;71.84
76998;BME280;65930;48.874;10.734;2023-03-01T00:13:44;96710.28;;;-1.33;72.04
76998;BME280;65930;48.874;10.734;2023-03-01T00:16:14;96709.28;;;-1.37;71.96
76998;BME280;65930;48.874;10.734;2023-03-01T00:18:43;96704.47;;;-1.40;72.51
76998;BME280;65930;48.874;10.734;2023-03-01T00:21:12;96716.47;;;-1.41;71.92
76998;BME280;65930;48.874;10.734;2023-03-01T00:23:41;96699.75;;;-1.48;72.29
76998;BME280;65930;48.874;10.734;2023-03-01T00:26:10;96715.19;;;-1.35;71.72
76998;BME280;65930;48.874;10.734;2023-03-01T00:28:40;96712.50;;;-1.35;71.72
76998;BME280;65930;48.874;10.734;2023-03-01T00:31:11;96701.13;;;-1.37;72.21
76998;BME280;65930;48.874;10.734;2023-03-01T00:33:40;96707.06;;;-1.35;72.39
76998;BME280;65930;48.874;10.734;2023-03-01T00:36:09;96708.13;;;-1.45;72.37
76998;BME280;65930;48.874;10.734;2023-03-01T00:38:41;96695.44;;;-1.49;72.06
76998;BME280;65930;48.874;10.734;2023-03-01T00:41:11;96703.91;;;-1.51;72.70
76998;BME280;65930;48.874;10.734;2023-03-01T00:43:40;96702.69;;;-1.45;72.44
76998;BME280;65930;48.874;10.734;2023-03-01T00:46:10;96693.47;;;-1.35;72.51
76998;BME280;65930;48.874;10.734;2023-03-01T00:48:40;96693.63;;;-1.40;72.99
76998;BME280;65930;48.874;10.734;2023-03-01T00:51:10;96699.16;;;-1.45;72.03
76998;BME280;65930;48.874;10.734;2023-03-01T00:53:40;96706.06;;;-1.39;72.11
76998;BME280;65930;48.874;10.734;2023-03-01T00:56:10;96696.44;;;-1.45;72.63
76998;BME280;65930;48.874;10.734;2023-03-01T00:58:39;96695.69;;;-1.37;72.41
76998;BME280;65930;48.874;10.734;2023-03-01T01:01:08;96676.22;;;-1.30;71.86
76998;BME280;65930;48.874;10.734;2023-03-01T01:03:45;96689.75;;;-1.39;72.38
76998;BME280;65930;48.874;10.734;2023-03-01T01:06:15;96679.28;;;-1.32;71.83
76998;BME280;65930;48.874;10.734;2023-03-01T01:08:45;96676.06;;;-1.34;71.78
76998;BME280;65930;48.874;10.734;2023-03-01T01:11:13;96679.28;;;-1.32;72.17
76998;BME280;65930;48.874;10.734;2023-03-01T01:13:44;96668.03;;;-1.39;72.32
76998;BME280;65930;48.874;10.734;2023-03-01T01:16:14;96676.06;;;-1.34;72.34
76998;BME280;65930;48.874;10.734;2023-03-01T01:18:42;96673.34;;;-1.34;71.69
76998;BME280;65930;48.874;10.734;2023-03-01T01:21:13;96673.22;;;-1.29;72.38
76998;BME280;65930;48.874;10.734;2023-03-01T01:23:43;96675.63;;;-1.27;72.38
76998;BME280;65930;48.874;10.734;2023-03-01T01:26:14;96671.34;;;-1.20;71.37
76998;BME280;65930;48.874;10.734;2023-03-01T01:28:42;96672.53;;;-1.12;70.66
76998;BME280;65930;48.874;10.734;2023-03-01T01:31:11;96665.31;;;-1.17;71.81
76998;BME280;65930;48.874;10.734;2023-03-01T01:33:39;96669.31;;;-1.14;71.36
76998;BME280;65930;48.874;10.734;2023-03-01T01:36:08;96666.91;;;-1.16;71.32
76998;BME280;65930;48.874;10.734;2023-03-01T01:38:38;96661.28;;;-1.19;72.05
76998;BME280;65930;48.874;10.734;2023-03-01T01:41:06;96659.38;;;-1.19;72.17
76998;BME280;65930;48.874;10.734;2023-03-01T01:43:38;96652.16;;;-1.23;71.62
76998;BME280;65930;48.874;10.734;2023-03-01T01:46:23;96655.78;;;-1.28;72.09
76998;BME280;65930;48.874;10.734;2023-03-01T01:48:58;96652.44;;;-1.25;71.96
76998;BME280;65930;48.874;10.734;2023-03-01T01:51:31;96653.88;;;-1.27;72.29
76998;BME280;65930;48.874;10.734;2023-03-01T01:54:11;96644.41;;;-1.30;72.42
76998;BME280;65930;48.874;10.734;2023-03-01T01:56:47;96649.97;;;-1.35;72.22
76998;BME280;65930;48.874;10.734;2023-03-01T01:59:17;96635.78;;;-1.32;71.49
76998;BME280;65930;48.874;10.734;2023-03-01T02:01:46;96637.47;;;-1.45;71.99
76998;BME280;65930;48.874;10.734;2023-03-01T02:04:14;96634.13;;;-1.42;72.21
76998;BME280;65930;48.874;10.734;2023-03-01T02:06:48;96639.25;;;-1.40;72.37
76998;BME280;65930;48.874;10.734;2023-03-01T02:09:20;96629.50;;;-1.41;72.67
76998;BME280;65930;48.874;10.734;2023-03-01T02:11:51;96631.59;;;-1.38;72.38
76998;BME280;65930;48.874;10.734;2023-03-01T02:14:18;96623.56;;;-1.43;72.17
76998;BME280;65930;48.874;10.734;2023-03-01T02:16:48;96626.78;;;-1.41;72.23
76998;BME280;65930;48.874;10.734;2023-03-01T02:19:28;96635.28;;;-1.34;71.93
76998;BME280;65930;48.874;10.734;2023-03-01T02:22:08;96630.38;;;-1.54;72.57
76998;BME280;65930;48.874;10.734;2023-03-01T02:24:53;96624.44;;;-1.56;73.27
76998;BME280;65930;48.874;10.734;2023-03-01T02:27:33;96621.94;;;-1.44;73.17
76998;BME280;65930;48.874;10.734;2023-03-01T02:30:07;96632.81;;;-1.44;72.13
76998;BME280;65930;48.874;10.734;2023-03-01T02:32:40;96622.22;;;-1.54;72.93
76998;BME280;65930;48.874;10.734;2023-03-01T02:35:10;96619.88;;;-1.47;72.56
76998;BME280;65930;48.874;10.734;2023-03-01T02:37:41;96610.59;;;-1.46;72.74
76998;BME280;65930;48.874;10.734;2023-03-01T02:40:14;96613.16;;;-1.50;72.72
76998;BME280;65930;48.874;10.734;2023-03-01T02:42:49;96597.38;;;-1.39;72.34
76998;BME280;65930;48.874;10.734;2023-03-01T02:45:20;96604.66;;;-1.48;73.17
76998;BME280;65930;48.874;10.734;2023-03-01T02:47:49;96593.19;;;-1.45;72.29
76998;BME280;65930;48.874;10.734;2023-03-01T02:50:36;96592.81;;;-1.52;73.21
76998;BME280;65930;48.874;10.734;2023-03-01T02:53:16;96582.63;;;-1.47;73.40
76998;BME280;65930;48.874;10.734;2023-03-01T02:55:47;96594.44;;;-1.51;72.76
76998;BME280;65930;48.874;10.734;2023-03-01T02:58:17;96589.00;;;-1.51;73.16
76998;BME280;65930;48.874;10.734;2023-03-01T03:00:46;96578.38;;;-1.61;72.99
76998;BME280;65930;48.874;10.734;2023-03-01T03:03:17;96581.16;;;-1.53;73.02
76998;BME280;65930;48.874;10.734;2023-03-01T03:05:46;96581.31;;;-1.49;73.31
76998;BME280;65930;48.874;10.734;2023-03-01T03:08:15;96580.00;;;-1.60;73.02
76998;BME280;65930;48.874;10.734;2023-03-01T03:10:51;96571.72;;;-1.55;72.79
76998;BME280;65930;48.874;10.734;2023-03-01T03:13:19;96571.53;;;-1.59;73.22
76998;BME280;65930;48.874;10.734;2023-03-01T03:15:50;96569.13;;;-1.60;73.23
76998;BME280;65930;48.874;10.734;2023-03-01T03:18:18;96568.13;;;-1.64;73.84
76998;BME280;65930;48.874;10.734;2023-03-01T03:20:46;96563.00;;;-1.66;73.45
76998;BME280;65930;48.874;10.734;2023-03-01T03:23:19;96573.94;;;-1.57;73.65
76998;BME280;65930;48.874;10.734;2023-03-01T03:25:48;96568.75;;;-1.67;74.09
76998;BME280;65930;48.874;10.734;2023-03-01T03:28:17;96568.13;;;-1.64;74.15
76998;BME280;65930;48.874;10.734;2023-03-01T03:30:46;96566.22;;;-1.64;73.59
76998;BME280;65930;48.874;10.734;2023-03-01T03:33:15;96558.25;;;-1.60;73.30
76998;BME280;65930;48.874;10.734;2023-03-01T03:35:46;96559.88;;;-1.59;72.86
76998;BME280;65930;48.874;10.734;2023-03-01T03:38:17;96561.44;;;-1.58;73.36
76998;BME280;65930;48.874;10.734;2023-03-01T03:40:51;96558.81;;;-1.50;72.77
76998;BME280;65930;48.874;10.734;2023-03-01T03:43:22;96551.75;;;-1.51;73.00
76998;BME280;65930;48.874;10.734;2023-03-01T03:45:51;96559.78;;;-1.46;73.31
76998;BME280;65930;48.874;10.734;2023-03-01T03:48:20;96555.97;;;-1.45;73.10
76998;BME280;65930;48.874;10.734;2023-03-01T03:50:50;96549.38;;;-1.44;73.22
76998;BME280;65930;48.874;10.734;2023-03-01T03:53:19;96549.34;;;-1.52;72.73
76998;BME280;65930;48.874;10.734;2023-03-01T03:55:47;96555.41;;;-1.55;73.02
76998;BME280;65930;48.874;10.734;2023-03-01T03:58:16;96557.81;;;-1.54;72.81
76998;BME280;65930;48.874;10.734;2023-03-01T04:00:48;96540.72;;;-1.54;72.70
76998;BME280;65930;48.874;10.734;2023-03-01T04:03:21;96543.91;;;-1.52;72.46
76998;BME280;65930;48.874;10.734;2023-03-01T04:05:51;96538.47;;;-1.52;73.47
76998;BME280;65930;48.874;10.734;2023-03-01T04:08:21;96540.53;;;-1.58;72.93
76998;BME280;65930;48.874;10.734;2023-03-01T04:10:51;96550.59;;;-1.58;72.75
76998;BME280;65930;48.874;10.734;2023-03-01T04:13:21;96547.56;;;-1.57;72.77
76998;BME280;65930;48.874;10.734;2023-03-01T04:15:52;96546.41;;;-1.64;73.36
76998;BME280;65930;48.874;10.734;2023-03-01T04:18:23;96551.22;;;-1.61;73.09
76998;BME280;65930;48.874;10.734;2023-03-01T04:20:53;96535.13;;;-1.80;73.37
76998;BME280;65930;48.874;10.734;2023-03-01T04:23:22;96549.84;;;-1.72;73.70
76998;BME280;65930;48.874;10.734;2023-03-01T04:25:51;96539.28;;;-1.83;74.04
76998;BME280;65930;48.874;10.734;2023-03-01T04:28:22;96547.53;;;-1.88;73.81
76998;BME280;65930;48.874;10.734;2023-03-01T04:30:51;96544.19;;;-1.85;74.22
76998;BME280;65930;48.874;10.734;2023-03-01T04:33:22;96540.69;;;-1.85;74.17
76998;BME280;65930;48.874;10.734;2023-03-01T04:35:50;96544.56;;;-1.77;73.33
76998;BME280;65930;48.874;10.734;2023-03-01T04:38:20;96537.03;;;-1.81;73.60
76998;BME280;65930;48.874;10.734;2023-03-01T04:40:48;96537.97;;;-1.85;73.32
76998;BME280;65930;48.874;10.734;2023-03-01T04:43:16;96536.00;;;-1.93;74.53
76998;BME280;65930;48.874;10.734;2023-03-01T04:45:44;96536.28;;;-1.95;73.92
76998;BME280;65930;48.874;10.734;2023-03-01T04:48:12;96551.97;;;-1.92;73.61
76998;BME280;65930;48.874;10.734;2023-03-01T04:50:41;96543.75;;;-2.00;73.99
76998;BME280;65930;48.874;10.734;2023-03-01T04:53:09;96547.78;;;-1.98;73.80
76998;BME280;65930;48.874;10.734;2023-03-01T04:55:37;96552.03;;;-2.05;73.85
76998;BME280;65930;48.874;10.734;2023-03-01T04:58:05;96542.41;;;-2.11;74.84
76998;BME280;65930;48.874;10.734;2023-03-01T05:00:33;96528.84;;;-2.11;74.20
76998;BME280;65930;48.874;10.734;2023-03-01T05:03:02;96543.22;;;-2.11;74.18
76998;BME280;65930;48.874;10.734;2023-03-01T05:05:33;96539.50;;;-2.15;74.15
76998;BME280;65930;48.874;10.734;2023-03-01T05:08:05;96537.56;;;-2.14;73.87
76998;BME280;65930;48.874;10.734;2023-03-01T05:10:35;96540.63;;;-2.16;74.40
76998;BME280;65930;48.874;10.734;2023-03-01T05:13:05;96540.84;;;-2.26;75.17
76998;BME280;65930;48.874;10.734;2023-03-01T05:15:33;96529.38;;;-2.23;74.93
76998;BME280;65930;48.874;10.734;2023-03-01T05:18:03;96540.84;;;-2.26;74.27
76998;BME280;65930;48.874;10.734;2023-03-01T05:20:33;96533.34;;;-2.29;74.36
76998;BME280;65930;48.874;10.734;2023-03-01T05:23:05;96537.88;;;-2.38;74.60
76998;BME280;65930;48.874;10.734;2023-03-01T05:25:34;96543.78;;;-2.36;75.11
76998;BME280;65930;48.874;10.734;2023-03-01T05:28:11;96536.69;;;-2.46;74.75
76998;BME280;65930;48.874;10.734;2023-03-01T05:30:39;96538.09;;;-2.48;74.65
76998;BME280;65930;48.874;10.734;2023-03-01T05:33:08;96537.47;;;-2.45;75.30
76998;BME280;65930;48.874;10.734;2023-03-01T05:35:40;96529.06;;;-2.44;74.39
76998;BME280;65930;48.874;10.734;2023-03-01T05:38:11;96536.69;;;-2.46;75.05
76998;BME280;65930;48.874;10.734;2023-03-01T05:40:40;96536.31;;;-2.53;75.33
76998;BME280;65930;48.874;10.734;2023-03-01T05:43:09;96537.31;;;-2.49;74.42
76998;BME280;65930;48.874;10.734;2023-03-01T05:45:38;96537.13;;;-2.52;75.10
76998;BME280;65930;48.874;10.734;2023-03-01T05:48:07;96528.28;;;-2.58;75.45
76998;BME280;65930;48.874;10.734;2023-03-01T05:50:37;96532.91;;;-2.58;74.92
76998;BME280;65930;48.874;10.734;2023-03-01T05:53:09;96530.91;;;-2.67;74.73
76998;BME280;65930;48.874;10.734;2023-03-01T05:55:39;96526.38;;;-2.57;74.37
76998;BME280;65930;48.874;10.734;2023-03-01T05:58:10;96538.31;;;-2.58;74.13
76998;BME280;65930;48.874;10.734;2023-03-01T06:00:41;96534.09;;;-2.64;75.21
76998;BME280;65930;48.874;10.734;2023-03-01T06:03:11;96535.09;;;-2.60;74.52
76998;BME280;65930;48.874;10.734;2023-03-01T06:05:42;96536.94;;;-2.70;75.24
76998;BME280;65930;48.874;10.734;2023-03-01T06:08:12;96521.06;;;-2.62;74.48
76998;BME280;65930;48.874;10.734;2023-03-01T06:10:41;96540.75;;;-2.71;75.20
76998;BME280;65930;48.874;10.734;2023-03-01T06:13:09;96534.44;;;-2.80;75.12
76998;BME280;65930;48.874;10.734;2023-03-01T06:15:37;96533.94;;;-2.82;76.06
76998;BME280;65930;48.874;10.734;2023-03-01T06:18:05;96544.97;;;-2.78;75.26
76998;BME280;65930;48.874;10.734;2023-03-01T06:20:33;96540.56;;;-2.88;75.35
76998;BME280;65930;48.874;10.734;2023-03-01T06:23:00;96539.38;;;-2.82;74.92
76998;BME280;65930;48.874;10.734;2023-03-01T06:25:28;96540.19;;;-2.81;75.19
76998;BME280;65930;48.874;10.734;2023-03-01T06:27:58;96542.09;;;-2.82;74.73
76998;BME280;65930;48.874;10.734;2023-03-01T06:30:26;96542.16;;;-2.73;75.57
76998;BME280;65930;48.874;10.734;2023-03-01T06:32:54;96546.16;;;-2.71;74.51
76998;BME280;65930;48.874;10.734;2023-03-01T06:35:28;96543.25;;;-2.74;74.53
76998;BME280;65930;48.874;10.734;2023-03-01T06:37:58;96535.94;;;-2.74;75.31
76998;BME280;65930;48.874;10.734;2023-03-01T06:40:26;96526.09;;;-2.70;74.55
76998;BME280;65930;48.874;10.734;2023-03-01T06:42:54;96538.28;;;-2.81;74.90
76998;BME280;65930;48.874;10.734;2023-03-01T06:45:24;96540.16;;;-2.68;74.99
76998;BME280;65930;48.874;10.734;2023-03-01T06:47:52;96535.31;;;-2.57;74.24
76998;BME280;65930;48.874;10.734;2023-03-01T06:50:20;96531.69;;;-2.52;74.70
76998;BME280;65930;48.874;10.734;2023-03-01T06:52:48;96525.34;;;-2.48;73.82
76998;BME280;65930;48.874;10.734;2023-03-01T06:55:16;96538.38;;;-2.36;73.91
76998;BME280;65930;48.874;10.734;2023-03-01T06:57:44;96533.81;;;-2.27;73.41
76998;BME280;65930;48.874;10.734;2023-03-01T07:00:13;96536.59;;;-2.18;73.60
76998;BME280;65930;48.874;10.734;2023-03-01T07:02:43;96522.97;;;-2.05;72.73
76998;BME280;65930;48.874;10.734;2023-03-01T07:05:11;96523.34;;;-1.98;72.61
76998;BME280;65930;48.874;10.734;2023-03-01T07:07:39;96529.00;;;-1.86;71.47
76998;BME280;65930;48.874;10.734;2023-03-01T07:10:08;96525.75;;;-1.74;71.95
76998;BME280;65930;48.874;10.734;2023-03-01T07:12:36;96520.78;;;-1.72;70.85
76998;BME280;65930;48.874;10.734;2023-03-01T07:15:05;96519.47;;;-1.52;70.10
76998;BME280;65930;48.874;10.734;2023-03-01T07:17:35;96512.66;;;-1.41;69.93
76998;BME280;65930;48.874;10.734;2023-03-01T07:20:05;96523.06;;;-1.35;70.19
76998;BME280;65930;48.874;10.734;2023-03-01T07:22:33;96519.41;;;-1.30;69.38
76998;BME280;65930;48.874;10.734;2023-03-01T07:25:01;96515.28;;;-1.27;69.60
76998;BME280;65930;48.874;10.734;2023-03-01T07:27:29;96503.09;;;-1.30;70.17
76998;BME280;65930;48.874;10.734;2023-03-01T07:29:57;96501.56;;;-1.14;69.07
76998;BME280;65930;48.874;10.734;2023-03-01T07:32:25;96507.19;;;-1.02;68.26
76998;BME280;65930;48.874;10.734;2023-03-01T07:34:53;96502.78;;;-0.89;69.01
76998;BME280;65930;48.874;10.734;2023-03-01T07:37:22;96496.84;;;-0.82;67.93
76998;BME280;65930;48.874;10.734;2023-03-01T07:39:50;96496.53;;;-0.90;67.61
76998;BME280;65930;48.874;10.734;2023-03-01T07:42:18;96496.34;;;-0.93;68.09
76998;BME280;65930;48.874;10.734;2023-03-01T07:44:46;96492.03;;;-0.94;67.98
76998;BME280;65930;48.874;10.734;2023-03-01T07:47:14;96489.19;;;-0.80;67.82
76998;BME280;65930;48.874;10.734;2023-03-01T07:49:41;96501.34;;;-0.69;67.77
76998;BME280;65930;48.874;10.734;2023-03-01T07:52:11;96499.28;;;-0.64;67.30
76998;BME280;65930;48.874;10.734;2023-03-01T07:54:43;96491.47;;;-0.57;67.28
76998;BME280;65930;48.874;10.734;2023-03-01T07:57:11;96507.16;;;-0.62;67.44
76998;BME280;65930;48.874;10.734;2023-03-01T07:59:39;96490.84;;;-0.45;67.20
76998;BME280;65930;48.874;10.734;2023-03-01T08:02:08;96506.19;;;-0.49;67.39
76998;BME280;65930;48.874;10.734;2023-03-01T08:04:36;96498.38;;;-0.25;66.33
76998;BME280;65930;48.874;10.734;2023-03-01T08:07:05;96497.72;;;-0.22;65.90
76998;BME280;65930;48.874;10.734;2023-03-01T08:09:34;96496.25;;;0.07;66.74
76998;BME280;65930;48.874;10.734;2023-03-01T08:12:05;96500.53;;;0.33;65.44
76998;BME280;65930;48.874;10.734;2023-03-01T08:14:33;96499.09;;;0.36;65.24
76998;BME280;65930;48.874;10.734;2023-03-01T08:17:02;96505.34;;;0.36;64.92
76998;BME280;65930;48.874;10.734;2023-03-01T08:19:30;96498.06;;;0.58;64.22
76998;BME280;65930;48.874;10.734;2023-03-01T08:21:59;96498.00;;;0.75;63.51
76998;BME280;65930;48.874;10.734;2023-03-01T08:24:28;96497.63;;;0.47;63.14
76998;BME280;65930;48.874;10.734;2023-03-01T08:26:56;96498.78;;;0.29;64.61
76998;BME280;65930;48.874;10.734;2023-03-01T08:29:25;96486.59;;;0.35;64.45
76998;BME280;65930;48.874;10.734;2023-03-01T08:31:53;96488.53;;;0.26;63.59
76998;BME280;65930;48.874;10.734;2023-03-01T08:34:21;96485.94;;;0.38;65.10
76998;BME280;65930;48.874;10.734;2023-03-01T08:36:49;96494.28;;;0.33;63.78
76998;BME280;65930;48.874;10.734;2023-03-01T08:39:19;96484.75;;;0.56;64.09
76998;BME280;65930;48.874;10.734;2023-03-01T08:41:48;96482.75;;;0.36;63.44
76998;BME280;65930;48.874;10.734;2023-03-01T08:44:15;96481.88;;;0.53;63.37
76998;BME280;65930;48.874;10.734;2023-03-01T08:46:45;96472.47;;;0.50;63.06
76998;BME280;65930;48.874;10.734;2023-03-01T08:49:15;96486.00;;;0.67;63.64
76998;BME280;65930;48.874;10.734;2023-03-01T08:51:44;96478.47;;;0.73;63.30
76998;BME280;65930;48.874;10.734;2023-03-01T08:54:14;96478.00;;;0.62;62.59
76998;BME280;65930;48.874;10.734;2023-03-01T08:56:42;96474.34;;;0.58;62.50
76998;BME280;65930;48.874;10.734;2023-03-01T08:59:11;96474.66;;;0.65;63.53
76998;BME280;65930;48.874;10.734;2023-03-01T09:01:41;96471.31;;;0.89;63.25
76998;BME280;65930;48.874;10.734;2023-03-01T09:04:12;96466.78;;;1.02;62.42
76998;BME280;65930;48.874;10.734;2023-03-01T09:06:40;96463.53;;;1.08;63.26
76998;BME280;65930;48.874;10.734;2023-03-01T09:09:14;96460.72;;;1.25;61.61
76998;BME280;65930;48.874;10.734;2023-03-01T09:11:43;96459.38;;;1.31;61.32
76998;BME280;65930;48.874;10.734;2023-03-01T09:14:13;96452.97;;;1.27;60.50
76998;BME280;65930;48.874;10.734;2023-03-01T09:16:41;96449.91;;;1.50;60.96
76998;BME280;65930;48.874;10.734;2023-03-01T09:19:11;96439.69;;;1.67;60.45
76998;BME280;65930;48.874;10.734;2023-03-01T09:21:39;96435.28;;;1.75;60.65
76998;BME280;65930;48.874;10.734;2023-03-01T09:24:13;96432.28;;;2.01;59.48
76998;BME280;65930;48.874;10.734;2023-03-01T09:26:41;96437.34;;;2.11;58.04
76998;BME280;65930;48.874;10.734;2023-03-01T09:29:09;96434.47;;;2.28;58.13
76998;BME280;65930;48.874;10.734;2023-03-01T09:31:38;96434.13;;;2.42;57.43
76998;BME280;65930;48.874;10.734;2023-03-01T09:34:06;96422.31;;;2.50;55.45
76998;BME280;65930;48.874;10.734;2023-03-01T09:36:36;96431.84;;;2.44;55.53
76998;BME280;65930;48.874;10.734;2023-03-01T09:39:04;96421.94;;;2.39;54.95
76998;BME280;65930;48.874;10.734;2023-03-01T09:41:44;96418.78;;;2.61;55.43
76998;BME280;65930;48.874;10.734;2023-03-01T09:44:27;96411.25;;;2.58;54.10
76998;BME280;65930;48.874;10.734;2023-03-01T09:46:58;96412.66;;;2.89;54.09
76998;BME280;65930;48.874;10.734;2023-03-01T09:49:29;96397.81;;;3.02;53.60
76998;BME280;65930;48.874;10.734;2023-03-01T09:52:06;96410.78;;;3.29;54.06
76998;BME280;65930;48.874;10.734;2023-03-01T09:54:39;96408.97;;;3.21;52.76
76998;BME280;65930;48.874;10.734;2023-03-01T09:57:17;96406.25;;;3.21;53.50
76998;BME280;65930;48.874;10.734;2023-03-01T10:00:07;96403.94;;;3.23;52.87
76998;BME280;65930;48.874;10.734;2023-03-01T10:02:45;96405.72;;;3.43;53.19
76998;BME280;65930;48.874;10.734;2023-03-01T10:05:36;96411.03;;;3.64;53.01
76998;BME280;65930;48.874;10.734;2023-03-01T10:08:31;96397.72;;;3.50;51.83
76998;BME280;65930;48.874;10.734;2023-03-01T10:11:04;96404.34;;;3.49;53.03
76998;BME280;65930;48.874;10.734;2023-03-01T10:13:41;96396.69;;;3.55;52.80
76998;BME280;65930;48.874;10.734;2023-03-01T10:16:15;96399.91;;;3.85;53.65
76998;BME280;65930;48.874;10.734;2023-03-01T10:18:53;96406.56;;;3.99;52.84
76998;BME280;65930;48.874;10.734;2023-03-01T10:21:22;96399.09;;;4.12;51.67
76998;BME280;65930;48.874;10.734;2023-03-01T10:23:52;96389.56;;;3.94;51.83
76998;BME280;65930;48.874;10.734;2023-03-01T10:26:37;96386.38;;;3.92;51.59
76998;BME280;65930;48.874;10.734;2023-03-01T10:29:09;96379.34;;;4.07;52.58
76998;BME280;65930;48.874;10.734;2023-03-01T10:31:41;96383.91;;;4.30;52.44
76998;BME280;65930;48.874;10.734;2023-03-01T10:34:14;96379.22;;;4.31;50.98
76998;BME280;65930;48.874;10.734;2023-03-01T10:36:44;96365.22;;;4.05;51.53
76998;BME280;65930;48.874;10.734;2023-03-01T10:39:19;96373.97;;;4.10;52.53
76998;BME280;65930;48.874;10.734;2023-03-01T10:41:55;96363.91;;;4.14;52.21
76998;BME280;65930;48.874;10.734;2023-03-01T10:44:40;96364.25;;;4.13;52.13
76998;BME280;65930;48.874;10.734;2023-03-01T10:47:15;96367.22;;;4.08;51.94
76998;BME280;65930;48.874;10.734;2023-03-01T10:49:56;96359.56;;;4.13;52.19
76998;BME280;65930;48.874;10.734;2023-03-01T10:52:30;96350.31;;;4.33;52.46
76998;BME280;65930;48.874;10.734;2023-03-01T10:55:03;96350.38;;;4.37;51.79
76998;BME280;65930;48.874;10.734;2023-03-01T10:57:38;96347.63;;;4.53;50.77
76998;BME280;65930;48.874;10.734;2023-03-01T11:00:23;96344.38;;;4.31;51.82
76998;BME280;65930;48.874;10.734;2023-03-01T11:03:08;96350.81;;;4.55;51.04
76998;BME280;65930;48.874;10.734;2023-03-01T11:05:52;96338.19;;;4.66;51.89
76998;BME280;65930;48.874;10.734;2023-03-01T11:08:32;96321.97;;;4.61;50.54
76998;BME280;65930;48.874;10.734;2023-03-01T11:13:55;96328.97;;;4.58;52.67
76998;BME280;65930;48.874;10.734;2023-03-01T11:16:33;96324.91;;;4.52;52.09
76998;BME280;65930;48.874;10.734;2023-03-01T11:19:17;96320.00;;;4.77;51.63
76998;BME280;65930;48.874;10.734;2023-03-01T11:21:57;96312.97;;;4.95;50.47
76998;BME280;65930;48.874;10.734;2023-03-01T11:24:34;96321.69;;;5.16;51.63
76998;BME280;65930;48.874;10.734;2023-03-01T11:27:16;96313.81;;;4.80;50.13
76998;BME280;65930;48.874;10.734;2023-03-01T11:29:48;96314.88;;;4.75;50.17
76998;BME280;65930;48.874;10.734;2023-03-01T11:32:23;96303.72;;;4.84;51.56
76998;BME280;65930;48.874;10.734;2023-03-01T11:34:57;96303.84;;;4.91;50.62
76998;BME280;65930;48.874;10.734;2023-03-01T11:37:33;96299.25;;;4.95;51.94
76998;BME280;65930;48.874;10.734;2023-03-01T11:40:12;96282.28;;;5.09;50.15
76998;BME280;65930;48.874;10.734;2023-03-01T11:42:55;96297.19;;;5.08;51.35
76998;BME280;65930;48.874;10.734;2023-03-01T11:45:30;96299.47;;;5.06;50.68
76998;BME280;65930;48.874;10.734;2023-03-01T11:48:29;96277.59;;;5.09;51.23
76998;BME280;65930;48.874;10.734;2023-03-01T11:51:23;96273.41;;;5.15;51.23
76998;BME280;65930;48.874;10.734;2023-03-01T11:54:13;96265.03;;;5.08;49.57
76998;BME280;65930;48.874;10.734;2023-03-01T11:56:51;96270.44;;;5.24;50.04
76998;BME280;65930;48.874;10.734;2023-03-01T11:59:42;96262.78;;;5.14;50.72
76998;BME280;65930;48.874;10.734;2023-03-01T12:02:32;96264.03;;;5.36;51.82
76998;BME280;65930;48.874;10.734;2023-03-01T12:05:34;96256.50;;;5.32;49.81
76998;BME280;65930;48.874;10.734;2023-03-01T12:08:12;96247.09;;;5.14;50.05
76998;BME280;65930;48.874;10.734;2023-03-01T12:10:52;96250.31;;;5.36;51.84
76998;BME280;65930;48.874;10.734;2023-03-01T12:13:51;96246.97;;;5.46;50.62
76998;BME280;65930;48.874;10.734;2023-03-01T12:16:37;96241.03;;;5.44;49.74
76998;BME280;65930;48.874;10.734;2023-03-01T12:19:25;96228.72;;;5.57;51.09
76998;BME280;65930;48.874;10.734;2023-03-01T12:22:09;96228.66;;;5.53;49.94
76998;BME280;65930;48.874;10.734;2023-03-01T12:24:55;96235.47;;;5.59;49.59
76998;BME280;65930;48.874;10.734;2023-03-01T12:27:44;96227.13;;;5.56;49.06
76998;BME280;65930;48.874;10.734;2023-03-01T12:30:26;96220.38;;;5.50;49.89
76998;BME280;65930;48.874;10.734;2023-03-01T12:33:11;96206.38;;;5.58;49.17
76998;BME280;65930;48.874;10.734;2023-03-01T12:35:59;96213.34;;;5.52;50.08
76998;BME280;65930;48.874;10.734;2023-03-01T12:38:41;96197.16;;;5.70;49.86
76998;BME280;65930;48.874;10.734;2023-03-01T12:41:40;96186.47;;;5.65;49.57
76998;BME280;65930;48.874;10.734;2023-03-01T12:44:26;96199.50;;;5.68;49.40
76998;BME280;65930;48.874;10.734;2023-03-01T12:47:11;96195.34;;;5.78;50.42
76998;BME280;65930;48.874;10.734;2023-03-01T12:49:48;96203.78;;;5.88;49.57
76998;BME280;65930;48.874;10.734;2023-03-01T12:52:26;96192.19;;;5.98;50.35
76998;BME280;65930;48.874;10.734;2023-03-01T12:55:00;96193.41;;;5.78;49.21
76998;BME280;65930;48.874;10.734;2023-03-01T12:57:33;96178.28;;;5.88;48.38
76998;BME280;65930;48.874;10.734;2023-03-01T13:00:18;96179.75;;;5.85;48.79
76998;BME280;65930;48.874;10.734;2023-03-01T13:02:58;96181.81;;;5.88;48.73
76998;BME280;65930;48.874;10.734;2023-03-01T13:05:39;96184.59;;;5.69;48.71
76998;BME280;65930;48.874;10.734;2023-03-01T13:08:16;96172.25;;;5.82;49.39
76998;BME280;65930;48.874;10.734;2023-03-01T13:10:51;96176.16;;;5.81;48.28
76998;BME280;65930;48.874;10.734;2023-03-01T13:13:23;96177.50;;;5.68;48.65
76998;BME280;65930;48.874;10.734;2023-03-01T13:15:52;96174.50;;;5.96;49.64
76998;BME280;65930;48.874;10.734;2023-03-01T13:18:29;96179.34;;;5.83;48.39
76998;BME280;65930;48.874;10.734;2023-03-01T13:21:02;96180.06;;;5.80;48.05
76998;BME280;65930;48.874;10.734;2023-03-01T13:23:35;96174.00;;;5.90;49.42